createdAt,value
2017-12-25T00:00:00.469Z,89.03
2017-12-25T00:01:00.542Z,89.03
2017-12-25T00:02:00.495Z,88.76
2017-12-25T00:03:00.468Z,88.71
2017-12-25T00:04:00.544Z,88.71
2017-12-25T00:05:00.468Z,88.31
2017-12-25T00:06:00.542Z,88.44
2017-12-25T00:07:00.454Z,88.52
2017-12-25T00:08:00.475Z,88.71
2017-12-25T00:09:00.549Z,88.92
2017-12-25T00:10:00.474Z,88.71
2017-12-25T00:11:00.547Z,88.52
2017-12-25T00:12:00.473Z,88.62
2017-12-25T00:13:00.473Z,88.60
2017-12-25T00:14:00.551Z,88.65
2017-12-25T00:15:00.479Z,88.60
2017-12-25T00:16:00.436Z,88.62
2017-12-25T00:17:00.478Z,88.76
2017-12-25T00:18:00.549Z,88.33
2017-12-25T00:19:00.519Z,88.25
2017-12-25T00:20:00.551Z,88.41
2017-12-25T00:21:00.479Z,88.62
2017-12-25T00:22:00.561Z,89.08
2017-12-25T00:23:00.483Z,88.95
2017-12-25T00:24:00.553Z,89.08
2017-12-25T00:25:00.431Z,89.35
2017-12-25T00:26:00.371Z,89.54
2017-12-25T00:27:00.431Z,89.59
2017-12-25T00:28:00.374Z,89.54
2017-12-25T00:29:00.461Z,89.62
2017-12-25T00:30:00.461Z,90.20
2017-12-25T00:31:00.381Z,90.36
2017-12-25T00:32:00.431Z,90.26
2017-12-25T00:33:00.374Z,90.28
2017-12-25T00:34:00.466Z,90.47
2017-12-25T00:35:00.437Z,90.55
2017-12-25T00:36:00.547Z,90.71
2017-12-25T00:37:00.473Z,90.58
2017-12-25T00:38:00.552Z,90.90
2017-12-25T00:39:00.459Z,90.50
2017-12-25T00:40:00.472Z,89.91
2017-12-25T00:41:00.437Z,90.13
2017-12-25T00:42:00.505Z,89.91
2017-12-25T00:43:00.465Z,89.43
2017-12-25T00:44:00.515Z,88.57
2017-12-25T00:45:00.399Z,87.61
2017-12-25T00:46:00.450Z,87.61
2017-12-25T00:47:00.433Z,87.80
2017-12-25T00:48:00.437Z,86.79
2017-12-25T00:49:00.507Z,86.81
2017-12-25T00:50:00.495Z,87.10
2017-12-25T00:51:00.494Z,86.79
2017-12-25T00:52:00.525Z,87.16
2017-12-25T00:53:00.528Z,86.84
2017-12-25T00:54:00.494Z,87.02
2017-12-25T00:55:00.574Z,86.63
2017-12-25T00:56:00.499Z,86.81
2017-12-25T00:57:00.502Z,86.63
2017-12-25T00:58:00.575Z,86.76
2017-12-25T00:59:00.502Z,86.97
2017-12-25T01:00:00.575Z,87.05
2017-12-25T01:01:00.503Z,87.10
2017-12-25T01:02:00.514Z,87.18
2017-12-25T01:03:00.579Z,87.21
2017-12-25T01:04:00.506Z,87.18
2017-12-25T01:05:00.578Z,87.10
2017-12-25T01:06:00.506Z,87.32
2017-12-25T01:07:00.583Z,87.43
2017-12-25T01:08:00.506Z,87.43
2017-12-25T01:09:00.581Z,87.29
2017-12-25T01:10:00.509Z,87.34
2017-12-25T01:11:00.584Z,87.82
2017-12-25T01:12:00.511Z,87.59
2017-12-25T01:13:00.584Z,87.64
2017-12-25T01:14:00.516Z,87.69
2017-12-25T01:15:00.586Z,88.04
2017-12-25T01:16:00.514Z,88.04
2017-12-25T01:17:00.586Z,88.28
2017-12-25T01:18:00.517Z,88.33
2017-12-25T01:19:00.586Z,88.50
2017-12-25T01:20:00.512Z,88.54
2017-12-25T01:21:00.518Z,88.81
2017-12-25T01:22:00.589Z,88.97
2017-12-25T01:23:00.524Z,89.19
2017-12-25T01:24:00.590Z,88.84
2017-12-25T01:25:00.522Z,89.14
2017-12-25T01:26:00.595Z,88.95
2017-12-25T01:27:00.517Z,89.00
2017-12-25T01:28:00.592Z,88.95
2017-12-25T01:29:00.518Z,88.97
2017-12-25T01:30:00.595Z,88.76
2017-12-25T01:31:00.522Z,88.87
2017-12-25T01:32:00.596Z,89.16
2017-12-25T01:33:00.518Z,89.06
2017-12-25T01:34:00.599Z,87.90
2017-12-25T01:35:00.499Z,88.01
2017-12-25T01:36:00.500Z,87.90
2017-12-25T01:37:00.431Z,87.82
2017-12-25T01:38:00.418Z,88.09
2017-12-25T01:39:00.509Z,88.39
2017-12-25T01:40:00.467Z,88.71
2017-12-25T01:41:00.406Z,88.57
2017-12-25T01:42:00.410Z,87.98
2017-12-25T01:43:00.509Z,88.31
2017-12-25T01:44:00.477Z,88.07
2017-12-25T01:45:00.533Z,88.28
2017-12-25T01:46:00.534Z,88.54
2017-12-25T01:47:00.603Z,88.50
2017-12-25T01:48:00.541Z,88.57
2017-12-25T01:49:00.604Z,87.88
2017-12-25T01:50:00.531Z,87.82
2017-12-25T01:51:00.603Z,88.54
2017-12-25T01:52:00.532Z,88.31
2017-12-25T01:53:00.609Z,87.53
2017-12-25T01:54:00.533Z,87.59
2017-12-25T01:55:00.609Z,87.82
2017-12-25T01:56:00.531Z,87.18
2017-12-25T01:57:00.531Z,86.91
2017-12-25T01:58:00.532Z,87.05
2017-12-25T01:59:00.537Z,87.05
2017-12-25T02:00:00.612Z,86.79
2017-12-25T02:01:00.541Z,86.63
2017-12-25T02:02:00.614Z,86.84
2017-12-25T02:03:00.541Z,87.13
2017-12-25T02:04:00.615Z,87.29
2017-12-25T02:05:00.574Z,87.53
2017-12-25T02:06:00.617Z,87.43
2017-12-25T02:07:00.573Z,87.56
2017-12-25T02:08:00.545Z,87.45
2017-12-25T02:09:00.618Z,86.87
2017-12-25T02:10:00.546Z,86.49
2017-12-25T02:11:00.618Z,86.44
2017-12-25T02:12:00.544Z,85.85
2017-12-25T02:13:00.619Z,85.48
2017-12-25T02:14:00.548Z,85.43
2017-12-25T02:15:00.611Z,85.35
2017-12-25T02:16:00.570Z,85.38
2017-12-25T02:17:00.519Z,84.74
2017-12-25T02:18:00.526Z,84.81
2017-12-25T02:19:00.519Z,84.81
2017-12-25T02:20:00.593Z,84.36
2017-12-25T02:21:00.588Z,83.78
2017-12-25T02:22:00.619Z,83.91
2017-12-25T02:23:00.562Z,84.44
2017-12-25T02:24:00.530Z,84.15
2017-12-25T02:25:00.553Z,84.02
2017-12-25T02:26:00.627Z,84.15
2017-12-25T02:27:00.557Z,84.44
2017-12-25T02:28:00.632Z,84.44
2017-12-25T02:29:00.555Z,84.50
2017-12-25T02:30:00.631Z,84.71
2017-12-25T02:31:00.555Z,84.76
2017-12-25T02:32:00.566Z,85.05
2017-12-25T02:33:00.638Z,84.71
2017-12-25T02:34:00.570Z,84.92
2017-12-25T02:35:00.634Z,84.95
2017-12-25T02:36:00.560Z,84.87
2017-12-25T02:37:00.566Z,85.19
2017-12-25T02:38:00.688Z,84.87
2017-12-25T02:39:00.635Z,84.89
2017-12-25T02:40:00.570Z,84.87
2017-12-25T02:41:00.639Z,85.19
2017-12-25T02:42:00.571Z,84.68
2017-12-25T02:43:00.639Z,84.74
2017-12-25T02:44:00.648Z,85.03
2017-12-25T02:45:00.563Z,84.92
2017-12-25T02:46:00.639Z,85.21
2017-12-25T02:47:00.572Z,85.32
2017-12-25T02:48:00.641Z,85.56
2017-12-25T02:49:00.572Z,85.53
2017-12-25T02:50:00.641Z,85.32
2017-12-25T02:51:00.572Z,85.27
2017-12-25T02:52:00.645Z,85.64
2017-12-25T02:53:00.600Z,86.01
2017-12-25T02:54:00.645Z,86.09
2017-12-25T02:55:00.571Z,86.15
2017-12-25T02:56:00.646Z,85.85
2017-12-25T02:57:00.574Z,85.48
2017-12-25T02:58:00.646Z,85.19
2017-12-25T02:59:00.570Z,85.00
2017-12-25T03:00:00.596Z,85.16
2017-12-25T03:01:00.648Z,85.00
2017-12-25T03:02:00.575Z,85.13
2017-12-25T03:03:00.578Z,85.30
2017-12-25T03:04:00.649Z,85.40
2017-12-25T03:05:00.580Z,85.38
2017-12-25T03:06:00.584Z,85.21
2017-12-25T03:07:00.653Z,85.11
2017-12-25T03:08:00.585Z,85.35
2017-12-25T03:09:00.656Z,85.32
2017-12-25T03:10:00.578Z,85.27
2017-12-25T03:11:00.659Z,85.46
2017-12-25T03:12:00.583Z,85.35
2017-12-25T03:13:00.656Z,85.43
2017-12-25T03:14:00.588Z,85.46
2017-12-25T03:15:00.659Z,85.43
2017-12-25T03:16:00.585Z,85.61
2017-12-25T03:17:00.659Z,85.56
2017-12-25T03:18:00.622Z,85.66
2017-12-25T03:19:00.660Z,85.77
2017-12-25T03:20:00.658Z,85.83
2017-12-25T03:21:00.593Z,85.77
2017-12-25T03:22:00.660Z,85.77
2017-12-25T03:23:00.662Z,85.38
2017-12-25T03:24:00.591Z,85.19
2017-12-25T03:25:00.664Z,85.24
2017-12-25T03:26:00.593Z,85.40
2017-12-25T03:27:00.663Z,85.48
2017-12-25T03:28:00.592Z,85.66
2017-12-25T03:29:00.666Z,85.69
2017-12-25T03:30:00.592Z,85.35
2017-12-25T03:31:00.666Z,85.48
2017-12-25T03:32:00.636Z,85.61
2017-12-25T03:33:00.599Z,85.66
2017-12-25T03:34:00.603Z,85.88
2017-12-25T03:35:00.669Z,86.20
2017-12-25T03:36:00.598Z,85.85
2017-12-25T03:37:00.670Z,85.72
2017-12-25T03:38:00.596Z,85.93
2017-12-25T03:39:00.554Z,85.85
2017-12-25T03:40:00.599Z,85.88
2017-12-25T03:41:00.678Z,85.77
2017-12-25T03:42:00.604Z,85.56
2017-12-25T03:43:00.675Z,85.58
2017-12-25T03:44:00.606Z,85.72
2017-12-25T03:45:00.675Z,86.01
2017-12-25T03:46:00.610Z,85.88
2017-12-25T03:47:00.677Z,86.04
2017-12-25T03:48:00.608Z,86.71
2017-12-25T03:49:00.680Z,85.69
2017-12-25T03:50:00.606Z,86.07
2017-12-25T03:51:00.678Z,86.07
2017-12-25T03:52:00.605Z,86.30
2017-12-25T03:53:00.680Z,86.60
2017-12-25T03:54:00.612Z,86.52
2017-12-25T03:55:00.682Z,85.93
2017-12-25T03:56:00.604Z,85.93
2017-12-25T03:57:00.684Z,85.66
2017-12-25T03:58:00.606Z,84.66
2017-12-25T03:59:00.682Z,84.36
2017-12-25T04:00:00.607Z,84.28
2017-12-25T04:01:00.610Z,84.47
2017-12-25T04:02:00.616Z,84.71
2017-12-25T04:03:00.684Z,84.92
2017-12-25T04:04:00.687Z,85.13
2017-12-25T04:05:00.620Z,85.32
2017-12-25T04:06:00.689Z,85.64
2017-12-25T04:07:00.617Z,85.72
2017-12-25T04:08:00.690Z,85.30
2017-12-25T04:09:00.618Z,84.63
2017-12-25T04:10:00.691Z,84.55
2017-12-25T04:11:00.621Z,84.71
2017-12-25T04:12:00.690Z,84.17
2017-12-25T04:13:00.621Z,83.94
2017-12-25T04:14:00.693Z,84.20
2017-12-25T04:15:00.619Z,83.78
2017-12-25T04:16:00.694Z,83.73
2017-12-25T04:17:00.622Z,83.57
2017-12-25T04:18:00.694Z,83.46
2017-12-25T04:19:00.713Z,83.36
2017-12-25T04:20:00.618Z,83.40
2017-12-25T04:21:00.621Z,83.40
2017-12-25T04:22:00.696Z,83.28
2017-12-25T04:23:00.627Z,83.33
2017-12-25T04:24:00.700Z,83.57
2017-12-25T04:25:00.641Z,83.14
2017-12-25T04:26:00.645Z,82.75
2017-12-25T04:27:00.699Z,83.09
2017-12-25T04:28:00.601Z,82.96
2017-12-25T04:29:00.600Z,82.53
2017-12-25T04:30:00.662Z,82.40
2017-12-25T04:31:00.667Z,82.53
2017-12-25T04:32:00.575Z,82.67
2017-12-25T04:33:00.645Z,82.77
2017-12-25T04:34:00.670Z,82.75
2017-12-25T04:35:00.627Z,82.51
2017-12-25T04:36:00.633Z,82.88
2017-12-25T04:37:00.704Z,82.96
2017-12-25T04:38:00.630Z,82.96
2017-12-25T04:39:00.709Z,82.88
2017-12-25T04:40:00.634Z,82.90
2017-12-25T04:41:00.710Z,83.06
2017-12-25T04:42:00.644Z,83.17
2017-12-25T04:43:00.712Z,83.17
2017-12-25T04:44:00.636Z,82.85
2017-12-25T04:45:00.671Z,82.80
2017-12-25T04:46:00.659Z,82.40
2017-12-25T04:47:00.573Z,82.75
2017-12-25T04:48:00.592Z,82.96
2017-12-25T04:49:00.697Z,81.63
2017-12-25T04:50:00.678Z,81.68
2017-12-25T04:51:00.573Z,81.87
2017-12-25T04:52:00.625Z,81.58
2017-12-25T04:53:00.623Z,81.87
2017-12-25T04:54:00.653Z,82.37
2017-12-25T04:55:00.644Z,82.08
2017-12-25T04:56:00.716Z,81.82
2017-12-25T04:57:00.651Z,81.95
2017-12-25T04:58:00.720Z,82.14
2017-12-25T04:59:00.652Z,82.48
2017-12-25T05:00:00.718Z,82.98
2017-12-25T05:01:00.650Z,82.82
2017-12-25T05:02:00.723Z,82.69
2017-12-25T05:03:00.685Z,81.82
2017-12-25T05:04:00.745Z,81.87
2017-12-25T05:05:00.726Z,82.21
2017-12-25T05:06:00.725Z,82.14
2017-12-25T05:07:00.650Z,81.76
2017-12-25T05:08:00.725Z,82.08
2017-12-25T05:09:00.652Z,82.19
2017-12-25T05:10:00.726Z,82.21
2017-12-25T05:11:00.653Z,82.53
2017-12-25T05:12:00.722Z,82.35
2017-12-25T05:13:00.655Z,82.19
2017-12-25T05:14:00.733Z,81.56
2017-12-25T05:15:00.730Z,81.45
2017-12-25T05:16:00.660Z,81.26
2017-12-25T05:17:00.732Z,81.34
2017-12-25T05:18:00.652Z,81.63
2017-12-25T05:19:00.661Z,81.56
2017-12-25T05:20:00.732Z,81.56
2017-12-25T05:21:00.662Z,81.42
2017-12-25T05:22:00.733Z,81.71
2017-12-25T05:23:00.731Z,81.52
2017-12-25T05:24:00.657Z,81.52
2017-12-25T05:25:00.735Z,81.76
2017-12-25T05:26:00.673Z,81.58
2017-12-25T05:27:00.735Z,82.08
2017-12-25T05:28:00.662Z,82.03
2017-12-25T05:29:00.735Z,81.95
2017-12-25T05:30:00.660Z,81.82
2017-12-25T05:31:00.664Z,81.98
2017-12-25T05:32:00.739Z,82.32
2017-12-25T05:33:00.668Z,82.35
2017-12-25T05:34:00.741Z,82.56
2017-12-25T05:35:00.674Z,82.59
2017-12-25T05:36:00.609Z,82.48
2017-12-25T05:37:00.680Z,82.45
2017-12-25T05:38:00.610Z,82.61
2017-12-25T05:39:00.666Z,82.48
2017-12-25T05:40:00.626Z,82.67
2017-12-25T05:41:00.612Z,82.64
2017-12-25T05:42:00.700Z,82.48
2017-12-25T05:43:00.612Z,82.69
2017-12-25T05:44:00.688Z,83.12
2017-12-25T05:45:00.705Z,82.98
2017-12-25T05:46:00.709Z,82.88
2017-12-25T05:47:00.622Z,82.98
2017-12-25T05:48:00.710Z,83.38
2017-12-25T05:49:00.648Z,83.36
2017-12-25T05:50:00.752Z,83.97
2017-12-25T05:51:00.657Z,83.25
2017-12-25T05:52:00.648Z,83.36
2017-12-25T05:53:00.658Z,83.65
2017-12-25T05:54:00.741Z,83.57
2017-12-25T05:55:00.632Z,83.49
2017-12-25T05:56:00.717Z,83.73
2017-12-25T05:57:00.747Z,83.89
2017-12-25T05:58:00.739Z,83.54
2017-12-25T05:59:00.717Z,83.86
2017-12-25T06:00:00.756Z,83.97
2017-12-25T06:01:00.699Z,84.34
2017-12-25T06:02:00.634Z,84.81
2017-12-25T06:03:00.726Z,84.31
2017-12-25T06:04:00.727Z,84.34
2017-12-25T06:05:00.682Z,84.34
2017-12-25T06:06:00.703Z,84.55
2017-12-25T06:07:00.720Z,84.66
2017-12-25T06:08:00.688Z,84.71
2017-12-25T06:09:00.686Z,84.63
2017-12-25T06:10:00.724Z,84.97
2017-12-25T06:11:00.689Z,84.60
2017-12-25T06:12:00.663Z,84.44
2017-12-25T06:13:00.749Z,84.09
2017-12-25T06:14:00.724Z,84.09
2017-12-25T06:15:00.710Z,84.26
2017-12-25T06:16:00.764Z,84.12
2017-12-25T06:17:00.690Z,84.05
2017-12-25T06:18:00.767Z,84.26
2017-12-25T06:19:00.765Z,84.17
2017-12-25T06:20:00.699Z,84.02
2017-12-25T06:21:00.781Z,84.12
2017-12-25T06:22:00.699Z,84.26
2017-12-25T06:23:00.699Z,83.89
2017-12-25T06:24:00.779Z,83.65
2017-12-25T06:25:00.774Z,83.62
2017-12-25T06:26:00.699Z,83.54
2017-12-25T06:27:00.769Z,83.67
2017-12-25T06:28:00.698Z,83.44
2017-12-25T06:29:00.773Z,83.70
2017-12-25T06:30:00.707Z,83.65
2017-12-25T06:31:00.775Z,83.51
2017-12-25T06:32:00.698Z,83.01
2017-12-25T06:33:00.774Z,83.33
2017-12-25T06:34:00.689Z,83.51
2017-12-25T06:35:00.781Z,83.44
2017-12-25T06:36:00.708Z,83.78
2017-12-25T06:37:00.778Z,83.97
2017-12-25T06:38:00.707Z,83.70
2017-12-25T06:39:00.780Z,83.91
2017-12-25T06:40:00.707Z,83.89
2017-12-25T06:41:00.783Z,83.54
2017-12-25T06:42:00.705Z,83.54
2017-12-25T06:43:00.780Z,83.36
2017-12-25T06:44:00.712Z,83.04
2017-12-25T06:45:00.786Z,83.17
2017-12-25T06:46:00.712Z,83.46
2017-12-25T06:47:00.714Z,83.17
2017-12-25T06:48:00.787Z,83.36
2017-12-25T06:49:00.723Z,83.28
2017-12-25T06:50:00.731Z,83.20
2017-12-25T06:51:00.787Z,83.36
2017-12-25T06:52:00.719Z,83.46
2017-12-25T06:53:00.790Z,83.33
2017-12-25T06:54:00.719Z,83.38
2017-12-25T06:55:00.721Z,83.12
2017-12-25T06:56:00.790Z,83.40
2017-12-25T06:57:00.724Z,83.49
2017-12-25T06:58:00.792Z,82.75
2017-12-25T06:59:00.723Z,82.85
2017-12-25T07:00:00.740Z,82.77
2017-12-25T07:01:00.744Z,83.14
2017-12-25T07:02:00.796Z,82.82
2017-12-25T07:03:00.725Z,82.67
2017-12-25T07:04:00.730Z,82.64
2017-12-25T07:05:00.795Z,82.40
2017-12-25T07:06:00.757Z,82.56
2017-12-25T07:07:00.663Z,82.67
2017-12-25T07:08:00.756Z,82.53
2017-12-25T07:09:00.756Z,81.58
2017-12-25T07:10:00.740Z,81.63
2017-12-25T07:11:00.799Z,81.66
2017-12-25T07:12:00.725Z,81.74
2017-12-25T07:13:00.700Z,81.82
2017-12-25T07:14:00.703Z,82.16
2017-12-25T07:15:00.728Z,82.16
2017-12-25T07:16:00.692Z,82.03
2017-12-25T07:17:00.744Z,82.19
2017-12-25T07:18:00.949Z,82.35
2017-12-25T07:19:00.738Z,82.16
2017-12-25T07:20:00.696Z,82.27
2017-12-25T07:21:00.745Z,82.35
2017-12-25T07:22:00.628Z,82.00
2017-12-25T07:23:00.744Z,82.32
2017-12-25T07:24:00.628Z,82.56
2017-12-25T07:25:00.749Z,82.51
2017-12-25T07:26:00.812Z,82.35
2017-12-25T07:27:00.743Z,82.35
2017-12-25T07:28:00.809Z,82.35
2017-12-25T07:29:00.767Z,82.35
2017-12-25T07:30:00.808Z,82.35
2017-12-25T07:31:00.811Z,82.35
2017-12-25T07:32:00.737Z,82.35
2017-12-25T07:33:00.687Z,82.35
2017-12-25T07:34:00.742Z,82.35
2017-12-25T07:35:00.813Z,82.35
2017-12-25T07:36:00.723Z,82.35
2017-12-25T07:37:00.693Z,82.35
2017-12-25T07:38:00.755Z,82.35
2017-12-25T07:39:00.753Z,82.35
2017-12-25T07:40:00.771Z,82.35
2017-12-25T07:41:00.686Z,82.35
2017-12-25T07:42:00.771Z,82.35
2017-12-25T07:43:00.685Z,82.35
2017-12-25T07:44:00.744Z,82.35
2017-12-25T07:45:00.743Z,82.35
2017-12-25T07:46:00.749Z,82.35
2017-12-25T07:47:00.824Z,82.35
2017-12-25T07:48:00.744Z,82.35
2017-12-25T07:49:00.821Z,82.35
2017-12-25T07:50:00.748Z,82.35
2017-12-25T07:51:00.823Z,82.35
2017-12-25T07:52:00.751Z,82.35
2017-12-25T07:53:00.824Z,82.35
2017-12-25T07:54:00.756Z,82.35
2017-12-25T07:55:00.826Z,82.35
2017-12-25T07:56:00.813Z,82.35
2017-12-25T07:57:00.765Z,82.35
2017-12-25T07:58:00.702Z,82.35
2017-12-25T07:59:00.816Z,82.35
2017-12-25T08:00:00.794Z,82.35
2017-12-25T08:01:00.729Z,82.35
2017-12-25T08:02:00.705Z,82.35
2017-12-25T08:03:00.705Z,82.35
2017-12-25T08:04:00.833Z,82.35
2017-12-25T08:05:00.755Z,82.35
2017-12-25T08:06:00.758Z,82.35
2017-12-25T08:07:00.757Z,82.35
2017-12-25T08:08:00.759Z,82.35
2017-12-25T08:09:00.835Z,82.35
2017-12-25T08:10:00.759Z,82.35
2017-12-25T08:11:00.835Z,82.35
2017-12-25T08:12:00.747Z,82.35
2017-12-25T08:13:00.760Z,82.35
2017-12-25T08:14:00.760Z,82.35
2017-12-25T08:15:00.764Z,82.35
2017-12-25T08:16:00.709Z,82.35
2017-12-25T08:17:00.691Z,82.35
2017-12-25T08:18:00.761Z,82.35
2017-12-25T08:19:00.717Z,82.35
2017-12-25T08:20:00.722Z,82.35
2017-12-25T08:21:00.752Z,82.35
2017-12-25T08:22:00.668Z,82.35
2017-12-25T08:23:00.780Z,82.35
2017-12-25T08:24:00.717Z,82.35
2017-12-25T08:25:00.778Z,82.35
2017-12-25T08:26:00.798Z,82.35
2017-12-25T08:27:00.775Z,82.35
2017-12-25T08:28:00.710Z,82.35
2017-12-25T08:29:00.723Z,82.35
2017-12-25T08:30:00.766Z,82.35
2017-12-25T08:31:00.797Z,82.35
2017-12-25T08:32:00.799Z,82.35
2017-12-25T08:33:00.711Z,82.35
2017-12-25T08:34:00.802Z,82.35
2017-12-25T08:35:00.799Z,82.35
2017-12-25T08:36:00.773Z,82.35
2017-12-25T08:37:00.853Z,82.35
2017-12-25T08:38:00.788Z,82.35
2017-12-25T08:39:00.776Z,82.35
2017-12-25T08:40:00.776Z,82.35
2017-12-25T08:41:00.815Z,82.35
2017-12-25T08:42:00.780Z,82.35
2017-12-25T08:43:00.806Z,82.35
2017-12-25T08:44:00.764Z,82.35
2017-12-25T08:45:00.849Z,82.35
2017-12-25T08:46:00.821Z,82.35
2017-12-25T08:47:00.841Z,82.35
2017-12-25T08:48:00.847Z,82.35
2017-12-25T08:49:00.819Z,82.35
2017-12-25T08:50:00.756Z,82.35
2017-12-25T08:51:00.792Z,82.35
2017-12-25T08:52:00.823Z,82.35
2017-12-25T08:53:00.756Z,82.35
2017-12-25T08:54:00.823Z,82.35
2017-12-25T08:55:00.734Z,82.35
2017-12-25T08:56:00.786Z,82.35
2017-12-25T08:57:00.785Z,82.35
2017-12-25T08:58:00.864Z,82.35
2017-12-25T08:59:00.786Z,82.35
2017-12-25T09:00:00.860Z,82.35
2017-12-25T09:01:00.792Z,82.35
2017-12-25T09:02:00.801Z,82.35
2017-12-25T09:03:00.788Z,82.35
2017-12-25T09:04:00.863Z,82.35
2017-12-25T09:05:00.866Z,82.35
2017-12-25T09:06:00.870Z,82.35
2017-12-25T09:07:00.789Z,82.35
2017-12-25T09:08:00.782Z,82.35
2017-12-25T09:09:00.868Z,82.35
2017-12-25T09:10:00.864Z,82.35
2017-12-25T09:11:00.800Z,82.35
2017-12-25T09:12:00.872Z,82.35
2017-12-25T09:13:00.870Z,82.35
2017-12-25T09:14:00.783Z,82.35
2017-12-25T09:15:00.805Z,82.35
2017-12-25T09:16:00.799Z,82.35
2017-12-25T09:17:00.830Z,82.35
2017-12-25T09:18:00.743Z,82.35
2017-12-25T09:19:00.832Z,82.35
2017-12-25T09:20:00.838Z,82.35
2017-12-25T09:21:00.803Z,82.35
2017-12-25T09:22:00.762Z,82.35
2017-12-25T09:23:00.760Z,82.35
2017-12-25T09:24:00.804Z,82.35
2017-12-25T09:25:00.709Z,82.35
2017-12-25T09:26:00.806Z,82.35
2017-12-25T09:27:00.807Z,82.35
2017-12-25T09:28:00.880Z,82.35
2017-12-25T09:29:00.811Z,82.35
2017-12-25T09:30:00.885Z,82.35
2017-12-25T09:31:00.804Z,82.35
2017-12-25T09:32:00.813Z,82.35
2017-12-25T09:33:00.810Z,82.35
2017-12-25T09:34:00.882Z,82.35
2017-12-25T09:35:00.818Z,82.35
2017-12-25T09:36:00.886Z,82.35
2017-12-25T09:37:00.881Z,82.35
2017-12-25T09:38:00.883Z,82.35
2017-12-25T09:39:00.833Z,82.35
2017-12-25T09:40:00.879Z,82.35
2017-12-25T09:41:00.812Z,82.35
2017-12-25T09:42:00.884Z,82.35
2017-12-25T09:43:00.803Z,82.35
2017-12-25T09:44:00.889Z,82.35
2017-12-25T09:45:00.895Z,82.35
2017-12-25T09:46:00.769Z,82.35
2017-12-25T09:47:00.804Z,82.35
2017-12-25T09:48:00.828Z,82.35
2017-12-25T09:49:00.730Z,82.35
2017-12-25T09:50:00.806Z,82.35
2017-12-25T09:51:00.723Z,82.35
2017-12-25T09:52:00.777Z,82.35
2017-12-25T09:53:00.719Z,82.35
2017-12-25T09:54:00.818Z,82.35
2017-12-25T09:55:00.829Z,82.35
2017-12-25T09:56:00.898Z,82.35
2017-12-25T09:57:00.894Z,82.35
2017-12-25T09:58:00.824Z,82.35
2017-12-25T09:59:00.902Z,82.35
2017-12-25T10:00:00.806Z,82.35
2017-12-25T10:01:00.900Z,82.35
2017-12-25T10:02:00.812Z,82.35
2017-12-25T10:03:00.812Z,82.35
2017-12-25T10:04:00.811Z,82.35
2017-12-25T10:05:00.828Z,82.35
2017-12-25T10:06:00.802Z,82.35
2017-12-25T10:07:00.862Z,82.35
2017-12-25T10:08:00.786Z,82.35
2017-12-25T10:09:00.844Z,82.35
2017-12-25T10:10:00.846Z,82.35
2017-12-25T10:11:00.913Z,82.35
2017-12-25T10:12:00.774Z,82.35
2017-12-25T10:13:00.831Z,82.35
2017-12-25T10:14:00.788Z,82.35
2017-12-25T10:15:00.741Z,82.35
2017-12-25T10:16:00.909Z,82.35
2017-12-25T10:17:00.910Z,82.35
2017-12-25T10:18:00.910Z,82.35
2017-12-25T10:19:00.828Z,82.35
2017-12-25T10:20:00.836Z,82.35
2017-12-25T10:21:00.834Z,82.35
2017-12-25T10:22:00.914Z,82.35
2017-12-25T10:23:00.839Z,82.35
2017-12-25T10:24:00.916Z,82.35
2017-12-25T10:25:00.913Z,82.35
2017-12-25T10:26:00.918Z,82.35
2017-12-25T10:27:00.842Z,82.35
2017-12-25T10:28:00.914Z,82.35
2017-12-25T10:29:00.919Z,82.35
2017-12-25T10:30:00.912Z,82.35
2017-12-25T10:31:00.916Z,82.35
2017-12-25T10:32:00.859Z,82.35
2017-12-25T10:33:00.881Z,82.35
2017-12-25T10:34:00.860Z,82.35
2017-12-25T10:35:00.918Z,82.35
2017-12-25T10:36:00.872Z,82.35
2017-12-25T10:37:00.867Z,82.35
2017-12-25T10:38:00.748Z,82.35
2017-12-25T10:39:00.834Z,82.35
2017-12-25T10:40:00.862Z,82.35
2017-12-25T10:41:00.822Z,82.35
2017-12-25T10:42:00.748Z,82.35
2017-12-25T10:43:00.779Z,82.35
2017-12-25T10:44:00.755Z,82.35
2017-12-25T10:45:00.849Z,82.35
2017-12-25T10:46:00.828Z,82.35
2017-12-25T10:47:00.808Z,82.35
2017-12-25T10:48:00.835Z,82.35
2017-12-25T10:49:00.899Z,82.35
2017-12-25T10:50:00.835Z,82.35
2017-12-25T10:51:00.824Z,82.35
2017-12-25T10:52:00.916Z,82.35
2017-12-25T10:53:00.837Z,82.35
2017-12-25T10:54:00.814Z,82.35
2017-12-25T10:55:00.898Z,82.35
2017-12-25T10:56:00.811Z,82.35
2017-12-25T10:57:00.856Z,82.35
2017-12-25T10:58:00.813Z,82.35
2017-12-25T10:59:00.899Z,82.35
2017-12-25T11:00:00.925Z,82.35
2017-12-25T11:01:00.830Z,82.35
2017-12-25T11:02:00.844Z,82.35
2017-12-25T11:03:00.832Z,82.35
2017-12-25T11:04:00.849Z,82.35
2017-12-25T11:05:00.839Z,82.35
2017-12-25T11:06:00.906Z,82.35
2017-12-25T11:07:00.820Z,82.35
2017-12-25T11:08:00.853Z,82.35
2017-12-25T11:09:00.888Z,82.35
2017-12-25T11:10:00.914Z,82.35
2017-12-25T11:11:00.905Z,82.35
2017-12-25T11:12:00.850Z,82.35
2017-12-25T11:13:00.939Z,82.35
2017-12-25T11:14:00.850Z,82.35
2017-12-25T11:15:00.946Z,82.35
2017-12-25T11:16:00.914Z,82.35
2017-12-25T11:17:00.876Z,82.35
2017-12-25T11:18:00.814Z,82.35
2017-12-25T11:19:00.904Z,82.35
2017-12-25T11:20:00.783Z,82.35
2017-12-25T11:21:00.832Z,82.35
2017-12-25T11:22:00.910Z,82.35
2017-12-25T11:23:00.927Z,82.35
2017-12-25T11:24:00.812Z,82.35
2017-12-25T11:25:00.886Z,82.35
2017-12-25T11:26:00.869Z,82.35
2017-12-25T11:27:00.883Z,82.35
2017-12-25T11:28:00.885Z,82.35
2017-12-25T11:29:00.885Z,82.35
2017-12-25T11:30:00.880Z,82.35
2017-12-25T11:31:00.883Z,82.35
2017-12-25T11:32:00.864Z,82.35
2017-12-25T11:33:00.881Z,82.35
2017-12-25T11:34:00.784Z,82.35
2017-12-25T11:35:00.807Z,82.35
2017-12-25T11:36:00.891Z,82.35
2017-12-25T11:37:00.954Z,82.35
2017-12-25T11:38:00.901Z,82.35
2017-12-25T11:39:00.967Z,82.35
2017-12-25T11:40:00.960Z,82.35
2017-12-25T11:41:00.852Z,82.35
2017-12-25T11:42:00.962Z,82.35
2017-12-25T11:43:00.887Z,82.35
2017-12-25T11:44:00.955Z,82.35
2017-12-25T11:45:00.932Z,82.35
2017-12-25T11:46:00.900Z,82.35
2017-12-25T11:47:00.902Z,82.35
2017-12-25T11:48:00.984Z,82.35
2017-12-25T11:49:00.876Z,82.35
2017-12-25T11:50:00.960Z,82.35
2017-12-25T11:51:00.877Z,82.35
2017-12-25T11:52:00.891Z,82.35
2017-12-25T11:53:00.901Z,82.35
2017-12-25T11:54:00.965Z,82.35
2017-12-25T11:55:00.881Z,82.35
2017-12-25T11:56:00.967Z,82.35
2017-12-25T11:57:00.987Z,82.35
2017-12-25T11:58:00.896Z,82.35
2017-12-25T11:59:00.979Z,82.35
2017-12-25T12:00:00.984Z,82.35
2017-12-25T12:01:00.899Z,82.35
2017-12-25T12:02:00.976Z,82.35
2017-12-25T12:03:00.900Z,82.35
2017-12-25T12:04:00.976Z,82.35
2017-12-25T12:05:00.979Z,82.35
2017-12-25T12:06:00.909Z,82.35
2017-12-25T12:07:00.968Z,82.35
2017-12-25T12:08:00.976Z,82.35
2017-12-25T12:09:00.902Z,82.35
2017-12-25T12:10:00.980Z,82.35
2017-12-25T12:11:00.902Z,82.35
2017-12-25T12:12:00.980Z,82.35
2017-12-25T12:13:00.907Z,82.35
2017-12-25T12:14:00.981Z,82.35
2017-12-25T12:15:00.907Z,82.35
2017-12-25T12:16:00.893Z,82.35
2017-12-25T12:17:00.939Z,82.35
2017-12-25T12:18:00.916Z,82.35
2017-12-25T12:19:00.929Z,82.35
2017-12-25T12:20:00.880Z,82.35
2017-12-25T12:21:00.885Z,82.35
2017-12-25T12:22:00.860Z,82.35
2017-12-25T12:23:00.929Z,82.35
2017-12-25T12:24:00.857Z,82.35
2017-12-25T12:25:00.887Z,82.35
2017-12-25T12:26:00.879Z,82.35
2017-12-25T12:27:00.801Z,82.35
2017-12-25T12:28:00.892Z,82.35
2017-12-25T12:29:00.920Z,82.35
2017-12-25T12:30:00.894Z,82.35
2017-12-25T12:31:00.892Z,82.35
2017-12-25T12:32:00.805Z,82.35
2017-12-25T12:33:00.917Z,82.35
2017-12-25T12:34:00.911Z,82.35
2017-12-25T12:35:00.904Z,82.35
2017-12-25T12:36:00.895Z,82.35
2017-12-25T12:37:00.945Z,82.35
2017-12-25T12:38:00.972Z,82.35
2017-12-25T12:39:00.945Z,82.35
2017-12-25T12:40:00.995Z,82.35
2017-12-25T12:41:00.921Z,82.35
2017-12-25T12:42:00.905Z,82.35
2017-12-25T12:43:00.996Z,82.35
2017-12-25T12:44:00.920Z,82.35
2017-12-25T12:45:00.909Z,82.35
2017-12-25T12:46:00.953Z,82.35
2017-12-25T12:47:00.932Z,82.35
2017-12-25T12:48:00.868Z,82.35
2017-12-25T12:49:00.924Z,82.35
2017-12-25T12:50:00.881Z,82.35
2017-12-25T12:51:00.835Z,82.35
2017-12-25T12:52:00.925Z,82.35